createdAt,value
2023-02-08T00:00:53.121Z,28.45
2023-02-08T00:03:19.552Z,26.85
2023-02-08T00:05:45.939Z,24.42
2023-02-08T00:08:12.320Z,23.38
2023-02-08T00:10:39.230Z,24.00
2023-02-08T00:13:05.846Z,24.05
2023-02-08T00:15:32.250Z,22.48
2023-02-08T00:17:58.688Z,22.48
2023-02-08T00:20:25.139Z,19.40
2023-02-08T00:22:52.638Z,19.75
2023-02-08T00:25:20.010Z,19.83
2023-02-08T00:27:46.650Z,21.85
2023-02-08T00:30:13.111Z,23.13
2023-02-08T00:32:39.530Z,23.77
2023-02-08T00:35:06.152Z,24.83
2023-02-08T00:37:32.549Z,25.52
2023-02-08T00:40:01.414Z,26.13
2023-02-08T00:42:28.172Z,26.10
2023-02-08T00:44:54.615Z,28.25
2023-02-08T00:47:20.985Z,31.75
2023-02-08T00:49:47.505Z,33.40
2023-02-08T00:52:13.939Z,31.55
2023-02-08T00:54:41.857Z,31.55
2023-02-08T00:57:08.982Z,30.75
2023-02-08T00:59:35.381Z,30.38
2023-02-08T01:02:01.956Z,32.33
2023-02-08T01:04:28.368Z,29.75
2023-02-08T01:06:54.768Z,29.10
2023-02-08T01:09:21.208Z,29.92
2023-02-08T01:11:47.621Z,28.35
2023-02-08T01:14:14.114Z,30.98
2023-02-08T01:16:40.552Z,30.30
2023-02-08T01:19:07.019Z,25.30
2023-02-08T01:21:37.571Z,24.30
2023-02-08T01:24:04.677Z,23.48
2023-02-08T01:26:31.912Z,22.23
2023-02-08T01:28:59.400Z,21.52
2023-02-08T01:31:37.759Z,18.95
2023-02-08T01:34:04.741Z,19.35
2023-02-08T01:36:31.786Z,19.52
2023-02-08T01:38:58.277Z,19.73
2023-02-08T01:41:32.912Z,18.95
2023-02-08T01:44:04.199Z,18.98
2023-02-08T01:46:31.353Z,20.23
2023-02-08T01:49:01.670Z,24.42
2023-02-08T01:51:32.350Z,25.63
2023-02-08T01:54:00.411Z,24.70
2023-02-08T01:56:29.246Z,24.38
2023-02-08T01:58:58.653Z,25.08
2023-02-08T02:01:25.842Z,24.75
2023-02-08T02:03:52.347Z,24.08
2023-02-08T02:06:23.341Z,24.55
2023-02-08T02:09:07.733Z,23.23
2023-02-08T02:11:34.312Z,23.73
2023-02-08T02:14:01.149Z,23.90
2023-02-08T02:16:27.564Z,22.67
2023-02-08T02:18:53.986Z,21.80
2023-02-08T02:21:39.915Z,21.42
2023-02-08T02:24:52.626Z,21.10
2023-02-08T02:27:48.081Z,20.58
2023-02-08T02:30:30.030Z,21.70
2023-02-08T02:32:59.648Z,21.08
2023-02-08T02:35:29.153Z,21.23
2023-02-08T02:38:02.441Z,21.42
2023-02-08T02:40:47.575Z,20.50
2023-02-08T02:43:41.518Z,21.05
2023-02-08T02:46:13.688Z,20.55
2023-02-08T02:48:45.900Z,21.52
2023-02-08T02:51:16.846Z,22.23
2023-02-08T02:53:59.403Z,22.52
2023-02-08T02:58:56.728Z,21.88
2023-02-08T03:01:27.070Z,20.55
2023-02-08T03:03:54.468Z,21.65
2023-02-08T03:06:29.733Z,21.52
2023-02-08T03:09:08.818Z,21.02
2023-02-08T03:11:36.868Z,20.63
2023-02-08T03:14:29.684Z,21.35
2023-02-08T03:19:32.020Z,18.95
2023-02-08T03:22:06.790Z,18.88
2023-02-08T03:24:40.318Z,18.05
2023-02-08T03:27:13.021Z,17.25
2023-02-08T03:30:00.903Z,16.13
2023-02-08T03:32:41.764Z,16.33
2023-02-08T03:35:15.886Z,17.50
2023-02-08T03:37:47.699Z,17.80
2023-02-08T03:40:22.786Z,17.73
2023-02-08T03:42:51.052Z,15.95
2023-02-08T03:45:22.041Z,16.05
2023-02-08T03:47:49.798Z,16.05
2023-02-08T03:50:18.034Z,16.55
2023-02-08T03:52:48.920Z,14.75
2023-02-08T03:55:18.840Z,15.27
2023-02-08T03:57:59.328Z,15.35
2023-02-08T04:00:26.042Z,15.63
2023-02-08T04:02:58.286Z,15.57
2023-02-08T04:05:25.702Z,15.25
2023-02-08T04:07:52.688Z,15.68
2023-02-08T04:10:19.340Z,16.02
2023-02-08T04:12:47.781Z,15.98
2023-02-08T04:15:14.249Z,16.73
2023-02-08T04:17:40.742Z,17.65
2023-02-08T04:20:07.712Z,16.98
2023-02-08T04:22:34.142Z,18.65
2023-02-08T04:25:00.777Z,17.90
2023-02-08T04:27:27.225Z,19.02
2023-02-08T04:29:53.723Z,20.98
2023-02-08T04:32:20.116Z,21.58
2023-02-08T04:34:46.620Z,23.63
2023-02-08T04:37:13.035Z,22.15
2023-02-08T04:39:39.439Z,21.70
2023-02-08T04:42:05.828Z,20.60
2023-02-08T04:44:32.881Z,21.25
2023-02-08T04:47:00.106Z,20.95
2023-02-08T04:49:26.518Z,21.23
2023-02-08T04:51:52.893Z,21.27
2023-02-08T04:54:19.367Z,21.67
2023-02-08T04:56:45.754Z,21.40
2023-02-08T04:59:12.153Z,21.98
2023-02-08T05:01:38.573Z,21.13
2023-02-08T05:04:05.036Z,22.27
2023-02-08T05:06:31.400Z,21.90
2023-02-08T05:08:57.846Z,22.52
2023-02-08T05:11:25.096Z,22.48
2023-02-08T05:13:51.513Z,22.90
2023-02-08T05:16:18.567Z,21.30
2023-02-08T05:18:45.091Z,22.38
2023-02-08T05:21:11.631Z,21.92
2023-02-08T05:23:41.223Z,23.02
2023-02-08T05:26:08.977Z,22.48
2023-02-08T05:28:35.746Z,21.00
2023-02-08T05:31:14.201Z,21.67
2023-02-08T05:33:40.797Z,23.02
2023-02-08T05:36:07.373Z,23.60
2023-02-08T05:38:33.786Z,21.88
2023-02-08T05:41:00.187Z,22.23
2023-02-08T05:43:26.648Z,22.10
2023-02-08T05:45:53.080Z,21.90
2023-02-08T05:48:19.510Z,22.73
2023-02-08T05:50:45.917Z,20.90
2023-02-08T05:53:12.308Z,20.73
2023-02-08T05:55:38.706Z,20.77
2023-02-08T05:58:05.097Z,20.60
2023-02-08T06:00:31.510Z,20.20
2023-02-08T06:02:58.408Z,20.27
2023-02-08T06:05:24.955Z,20.77
2023-02-08T06:07:51.348Z,20.55
2023-02-08T06:10:17.843Z,20.45
2023-02-08T06:12:44.287Z,19.27
2023-02-08T06:15:10.832Z,19.52
2023-02-08T06:17:37.193Z,20.42
2023-02-08T06:20:04.373Z,19.95
2023-02-08T06:22:30.942Z,19.40
2023-02-08T06:24:57.303Z,18.98
2023-02-08T06:27:23.705Z,19.20
2023-02-08T06:29:50.120Z,18.85
2023-02-08T06:32:16.608Z,21.25
2023-02-08T06:34:43.082Z,23.75
2023-02-08T06:37:09.543Z,21.42
2023-02-08T06:39:35.979Z,23.52
2023-02-08T06:42:02.497Z,22.25
2023-02-08T06:44:28.916Z,20.77
2023-02-08T06:46:56.377Z,18.63
2023-02-08T06:49:22.807Z,16.88
2023-02-08T06:51:49.240Z,16.55
2023-02-08T06:54:15.664Z,16.88
2023-02-08T06:56:42.800Z,16.60
2023-02-08T06:59:09.418Z,18.65
2023-02-08T07:01:35.844Z,19.85
2023-02-08T07:04:02.303Z,21.13
2023-02-08T07:06:28.719Z,20.17
2023-02-08T07:08:55.124Z,20.33
2023-02-08T07:11:21.736Z,18.45
2023-02-08T07:13:49.403Z,17.77
2023-02-08T07:16:16.492Z,19.38
2023-02-08T07:18:42.990Z,21.05
2023-02-08T07:21:12.589Z,21.83
2023-02-08T07:23:39.440Z,21.73
2023-02-08T07:26:09.132Z,22.50
2023-02-08T07:28:36.205Z,23.13
2023-02-08T07:31:11.379Z,23.30
2023-02-08T07:33:37.796Z,23.30
2023-02-08T07:36:05.326Z,23.15
2023-02-08T07:38:33.699Z,22.65
2023-02-08T07:41:12.237Z,25.38
2023-02-08T07:43:39.678Z,25.20
2023-02-08T07:46:11.338Z,25.70
2023-02-08T07:48:40.113Z,24.02
2023-02-08T07:51:07.175Z,23.65
2023-02-08T07:53:33.668Z,23.13
2023-02-08T07:56:00.106Z,24.00
2023-02-08T07:58:26.838Z,25.27
2023-02-08T08:00:53.269Z,24.00
2023-02-08T08:03:19.873Z,23.40
2023-02-08T08:05:46.577Z,23.40
2023-02-08T08:08:13.442Z,23.58
2023-02-08T08:10:40.438Z,22.08
2023-02-08T08:13:07.001Z,22.95
2023-02-08T08:15:33.449Z,21.83
2023-02-08T08:17:59.882Z,21.05
2023-02-08T08:20:26.599Z,21.67
2023-02-08T08:22:53.012Z,21.25
2023-02-08T08:25:19.482Z,19.45
2023-02-08T08:27:46.001Z,19.15
2023-02-08T08:30:14.991Z,19.65
2023-02-08T08:32:41.442Z,18.88
2023-02-08T08:35:08.668Z,19.13
2023-02-08T08:37:35.201Z,19.63
2023-02-08T08:40:02.234Z,19.52
2023-02-08T08:42:28.697Z,19.60
2023-02-08T08:44:55.156Z,19.63
2023-02-08T08:47:21.713Z,20.00
2023-02-08T08:49:48.119Z,19.05
2023-02-08T08:52:14.911Z,19.83
2023-02-08T08:54:41.370Z,21.67
2023-02-08T08:57:07.807Z,23.85
2023-02-08T08:59:34.378Z,25.05
2023-02-08T09:02:00.938Z,24.95
2023-02-08T09:04:27.364Z,23.73
2023-02-08T09:06:54.157Z,25.38
2023-02-08T09:09:21.611Z,24.33
2023-02-08T09:11:48.652Z,25.65
2023-02-08T09:14:15.196Z,25.70
2023-02-08T09:16:42.744Z,25.67
2023-02-08T09:19:10.597Z,24.13
2023-02-08T09:21:37.338Z,23.38
2023-02-08T09:24:04.015Z,24.40
2023-02-08T09:26:30.511Z,22.98
2023-02-08T09:28:56.934Z,22.83
2023-02-08T09:31:26.042Z,20.92
2023-02-08T09:33:54.392Z,21.27
2023-02-08T09:36:22.198Z,20.13
2023-02-08T09:38:51.907Z,18.73
2023-02-08T09:41:33.012Z,11.88
2023-02-08T09:44:21.196Z,11.85
2023-02-08T09:47:14.897Z,20.27
2023-02-08T09:49:55.393Z,20.70
2023-02-08T09:52:27.138Z,21.95
2023-02-08T09:54:57.458Z,20.48
2023-02-08T09:57:27.778Z,19.38
2023-02-08T10:00:00.403Z,19.48
2023-02-08T10:02:29.106Z,18.48
2023-02-08T10:05:02.549Z,19.73
2023-02-08T10:07:29.591Z,19.10
2023-02-08T10:09:59.550Z,17.65
2023-02-08T10:12:32.282Z,17.40
2023-02-08T10:15:38.422Z,16.25
2023-02-08T10:18:26.604Z,13.63
2023-02-08T10:21:08.129Z,9.63
2023-02-08T10:23:48.610Z,8.73
2023-02-08T10:26:22.000Z,6.72
2023-02-08T10:29:04.456Z,7.47
2023-02-08T10:31:38.510Z,7.75
2023-02-08T10:34:38.987Z,7.45
2023-02-08T10:37:21.913Z,6.80
2023-02-08T10:39:49.577Z,7.18
2023-02-08T10:42:18.653Z,7.00
2023-02-08T10:45:22.615Z,7.35
2023-02-08T10:47:54.313Z,6.85
2023-02-08T10:50:37.652Z,6.90
2023-02-08T10:53:04.379Z,6.13
2023-02-08T10:55:33.163Z,10.48
2023-02-08T10:58:03.017Z,9.90
2023-02-08T11:00:32.395Z,6.75
2023-02-08T11:03:01.854Z,6.28
2023-02-08T11:05:36.741Z,6.50
2023-02-08T11:08:11.450Z,5.78
2023-02-08T11:10:39.282Z,5.93
2023-02-08T11:13:18.214Z,7.03
2023-02-08T11:15:54.411Z,6.82
2023-02-08T11:18:26.674Z,6.78
2023-02-08T11:20:57.417Z,5.63
2023-02-08T11:23:28.549Z,6.00
2023-02-08T11:25:56.511Z,5.93
2023-02-08T11:28:30.814Z,6.50
2023-02-08T11:31:03.278Z,6.93
2023-02-08T11:36:00.731Z,6.20
2023-02-08T11:38:28.202Z,7.25
2023-02-08T11:41:00.248Z,6.65
2023-02-08T11:43:35.372Z,6.82
2023-02-08T11:46:03.898Z,6.88
2023-02-08T11:48:55.560Z,6.10
2023-02-08T11:51:27.837Z,5.63
2023-02-08T11:53:54.486Z,6.13
2023-02-08T11:56:25.456Z,6.47
2023-02-08T11:59:02.647Z,6.38
2023-02-08T12:01:30.655Z,6.60
2023-02-08T12:03:59.530Z,6.80
2023-02-08T12:06:50.550Z,6.97
2023-02-08T12:09:27.698Z,6.25
2023-02-08T12:12:20.336Z,6.82
2023-02-08T12:15:07.021Z,6.32
2023-02-08T12:17:59.810Z,6.20
2023-02-08T12:20:42.791Z,5.68
2023-02-08T12:23:28.086Z,5.82
2023-02-08T12:26:06.457Z,5.47
2023-02-08T12:29:02.355Z,5.55
2023-02-08T12:31:48.673Z,5.75
2023-02-08T12:34:53.976Z,5.68
2023-02-08T12:37:49.787Z,5.88
2023-02-08T12:40:49.957Z,5.70
2023-02-08T12:43:23.496Z,5.07
2023-02-08T12:46:06.776Z,5.07
2023-02-08T12:48:57.359Z,5.13
2023-02-08T12:51:37.625Z,5.80
2023-02-08T12:54:12.334Z,7.10
2023-02-08T12:56:46.624Z,8.73
2023-02-08T12:59:32.879Z,8.73
2023-02-08T13:02:03.524Z,9.25
2023-02-08T13:04:33.358Z,9.20
2023-02-08T13:07:04.436Z,9.88
2023-02-08T13:09:35.500Z,9.30
2023-02-08T13:12:04.095Z,9.17
2023-02-08T13:14:37.452Z,9.57
2023-02-08T13:17:16.193Z,9.18
2023-02-08T13:20:00.131Z,9.02
2023-02-08T13:22:27.303Z,9.10
2023-02-08T13:25:06.263Z,9.27
2023-02-08T13:27:33.729Z,9.57
2023-02-08T13:30:01.224Z,8.90
2023-02-08T13:32:30.492Z,8.60
2023-02-08T13:35:00.520Z,3.50
2023-02-08T13:37:32.874Z,3.13
2023-02-08T13:40:03.700Z,2.42
2023-02-08T13:42:37.963Z,3.85
2023-02-08T13:45:05.413Z,3.33
2023-02-08T13:47:42.512Z,2.90
2023-02-08T13:50:29.162Z,2.88
2023-02-08T13:52:55.952Z,3.10
2023-02-08T13:55:28.459Z,2.92
2023-02-08T14:00:32.865Z,2.70
2023-02-08T14:03:11.700Z,3.03
2023-02-08T14:06:16.204Z,3.05
2023-02-08T14:09:19.531Z,3.42
2023-02-08T14:11:49.546Z,3.17
2023-02-08T14:14:19.851Z,2.80
2023-02-08T14:17:07.319Z,3.15
2023-02-08T14:19:35.883Z,2.90
2023-02-08T14:22:03.920Z,3.10
2023-02-08T14:24:34.704Z,3.15
2023-02-08T14:27:22.441Z,3.00
2023-02-08T14:30:18.032Z,3.55
2023-02-08T14:32:49.521Z,3.70
2023-02-08T14:35:15.868Z,3.55
2023-02-08T14:37:44.352Z,3.80
2023-02-08T14:40:16.910Z,3.67
2023-02-08T14:45:38.975Z,3.60
2023-02-08T14:48:19.214Z,3.33
2023-02-08T14:50:55.578Z,3.05
2023-02-08T14:53:36.487Z,3.47
2023-02-08T14:56:20.509Z,3.60
2023-02-08T14:58:51.353Z,3.63
2023-02-08T15:01:26.999Z,4.35
2023-02-08T15:04:01.630Z,4.90
2023-02-08T15:06:37.653Z,5.95
2023-02-08T15:09:06.076Z,5.25
2023-02-08T15:11:33.658Z,4.60
2023-02-08T15:14:02.776Z,5.85
2023-02-08T15:16:34.150Z,5.45
2023-02-08T15:19:01.101Z,4.93
2023-02-08T15:21:31.806Z,5.47
2023-02-08T15:24:06.111Z,5.00
2023-02-08T15:26:33.016Z,5.00
2023-02-08T15:29:01.028Z,5.32
2023-02-08T15:31:32.035Z,5.60
2023-02-08T15:33:59.426Z,5.40
2023-02-08T15:36:29.934Z,5.78
2023-02-08T15:39:03.204Z,5.35
2023-02-08T15:41:33.838Z,6.40
2023-02-08T15:44:25.230Z,6.05
2023-02-08T15:46:57.914Z,6.65
2023-02-08T15:49:37.252Z,6.00
2023-02-08T15:52:04.736Z,5.40
2023-02-08T15:54:31.299Z,5.43
2023-02-08T15:57:02.086Z,5.30
2023-02-08T15:59:32.707Z,5.88
2023-02-08T16:02:24.425Z,5.80
2023-02-08T16:04:51.034Z,5.60
2023-02-08T16:07:40.180Z,7.28
2023-02-08T16:10:18.373Z,6.63
2023-02-08T16:12:51.346Z,6.53
2023-02-08T16:15:36.639Z,5.97
2023-02-08T16:18:03.432Z,6.10
2023-02-08T16:20:33.953Z,6.80
2023-02-08T16:23:23.956Z,7.05
2023-02-08T16:25:50.942Z,6.88
2023-02-08T16:28:29.176Z,6.43
2023-02-08T16:31:01.226Z,16.90
2023-02-08T16:33:29.282Z,18.92
2023-02-08T16:36:01.775Z,15.35
2023-02-08T16:41:01.303Z,10.93
2023-02-08T16:43:28.651Z,13.68
2023-02-08T16:46:10.422Z,10.98
2023-02-08T16:48:38.876Z,9.43
2023-02-08T16:51:07.572Z,8.95
2023-02-08T16:53:41.959Z,9.25
2023-02-08T16:56:10.567Z,10.40
2023-02-08T16:58:37.599Z,8.48
2023-02-08T17:01:04.650Z,7.20
2023-02-08T17:03:32.580Z,7.70
2023-02-08T17:06:00.198Z,8.48
2023-02-08T17:08:26.887Z,8.57
2023-02-08T17:10:58.701Z,7.85
2023-02-08T17:13:28.119Z,8.00
2023-02-08T17:15:54.633Z,8.43
2023-02-08T17:18:22.753Z,9.05
2023-02-08T17:20:49.175Z,8.65
2023-02-08T17:23:15.903Z,7.70
2023-02-08T17:25:43.067Z,8.55
2023-02-08T17:28:15.242Z,8.40
2023-02-08T17:30:43.373Z,7.22
2023-02-08T17:33:17.874Z,7.43
2023-02-08T17:35:49.793Z,7.18
2023-02-08T17:38:17.547Z,7.72
2023-02-08T17:40:44.594Z,7.50
2023-02-08T17:43:11.892Z,8.93
2023-02-08T17:45:39.848Z,9.75
2023-02-08T17:48:06.663Z,10.93
2023-02-08T17:50:33.100Z,9.40
2023-02-08T17:52:59.646Z,7.63
2023-02-08T17:55:26.076Z,7.53
2023-02-08T17:57:53.723Z,9.65
2023-02-08T18:00:22.158Z,8.20
2023-02-08T18:02:50.979Z,8.30
2023-02-08T18:05:20.182Z,7.90
2023-02-08T18:07:46.716Z,8.13
2023-02-08T18:10:15.080Z,8.13
2023-02-08T18:12:41.661Z,9.02
2023-02-08T18:15:12.009Z,7.88
2023-02-08T18:17:39.485Z,8.80
2023-02-08T18:20:06.826Z,8.00
2023-02-08T18:22:33.364Z,8.38
2023-02-08T18:24:59.828Z,8.57
2023-02-08T18:27:27.241Z,8.90
2023-02-08T18:29:54.408Z,8.13
2023-02-08T18:32:21.998Z,8.07
2023-02-08T18:34:49.522Z,7.15
2023-02-08T18:37:16.022Z,7.53
2023-02-08T18:39:42.500Z,7.28
2023-02-08T18:42:09.262Z,7.43
2023-02-08T18:44:38.628Z,7.22
2023-02-08T18:47:06.885Z,6.65
2023-02-08T18:49:40.262Z,7.75
2023-02-08T18:52:11.557Z,7.95
2023-02-08T18:54:38.900Z,7.40
2023-02-08T18:57:06.141Z,9.60
2023-02-08T18:59:33.400Z,9.70
2023-02-08T19:02:01.583Z,8.15
2023-02-08T19:04:28.327Z,7.90
2023-02-08T19:06:54.784Z,8.57
2023-02-08T19:09:21.267Z,8.68
2023-02-08T19:11:47.739Z,8.65
2023-02-08T19:14:15.920Z,8.73
2023-02-08T19:16:43.082Z,8.55
2023-02-08T19:19:09.555Z,7.88
2023-02-08T19:21:36.092Z,8.60
2023-02-08T19:24:03.372Z,8.18
2023-02-08T19:26:32.685Z,9.10
2023-02-08T19:29:00.573Z,8.40
2023-02-08T19:31:27.916Z,8.05
2023-02-08T19:33:58.557Z,8.25
2023-02-08T19:36:31.226Z,8.85
2023-02-08T19:38:58.792Z,9.55
2023-02-08T19:41:32.217Z,8.85
2023-02-08T19:43:59.364Z,8.15
2023-02-08T19:46:27.503Z,8.55
2023-02-08T19:49:00.169Z,9.32
2023-02-08T19:51:27.880Z,8.50
2023-02-08T19:53:56.652Z,9.05
2023-02-08T19:56:23.305Z,8.38
2023-02-08T19:58:49.760Z,8.27
2023-02-08T20:01:18.795Z,9.18
2023-02-08T20:03:46.696Z,8.80
2023-02-08T20:06:14.417Z,8.73
2023-02-08T20:08:40.884Z,8.55
2023-02-08T20:11:07.283Z,8.90
2023-02-08T20:13:33.769Z,8.60
2023-02-08T20:16:00.279Z,8.90
2023-02-08T20:18:26.811Z,8.57
2023-02-08T20:21:01.904Z,9.02
2023-02-08T20:23:28.639Z,8.32
2023-02-08T20:26:13.137Z,9.00
2023-02-08T20:28:42.054Z,8.48
2023-02-08T20:31:20.724Z,8.57
2023-02-08T20:33:47.496Z,8.88
2023-02-08T20:36:18.891Z,8.75
2023-02-08T20:38:45.551Z,8.57
2023-02-08T20:41:14.492Z,9.55
2023-02-08T20:43:42.512Z,9.30
2023-02-08T20:46:12.587Z,9.48
2023-02-08T20:48:39.057Z,9.32
2023-02-08T20:51:06.853Z,9.65
2023-02-08T20:53:34.826Z,9.65
2023-02-08T20:56:08.814Z,9.60
2023-02-08T20:58:35.779Z,9.73
2023-02-08T21:01:02.287Z,9.93
2023-02-08T21:03:28.947Z,10.50
2023-02-08T21:05:55.362Z,10.38
2023-02-08T21:08:21.716Z,10.77
2023-02-08T21:10:48.137Z,10.02
2023-02-08T21:13:14.630Z,9.88
2023-02-08T21:15:43.006Z,9.52
2023-02-08T21:18:11.898Z,9.82
2023-02-08T21:20:39.375Z,10.05
2023-02-08T21:23:06.957Z,9.65
2023-02-08T21:25:33.434Z,10.05
2023-02-08T21:27:59.946Z,9.63
2023-02-08T21:30:26.372Z,9.52
2023-02-08T21:32:52.825Z,9.50
2023-02-08T21:35:19.252Z,8.90
2023-02-08T21:37:45.701Z,8.98
2023-02-08T21:40:12.211Z,9.10
2023-02-08T21:42:38.629Z,9.32
2023-02-08T21:45:05.239Z,8.85
2023-02-08T21:47:31.704Z,9.40
2023-02-08T21:50:16.635Z,9.77
2023-02-08T21:53:01.475Z,10.18
2023-02-08T21:55:27.899Z,9.38
2023-02-08T21:57:54.366Z,9.10
2023-02-08T22:00:20.742Z,9.43
2023-02-08T22:02:47.275Z,9.90
2023-02-08T22:05:13.821Z,9.70
2023-02-08T22:07:54.262Z,9.02
2023-02-08T22:10:26.330Z,9.50
2023-02-08T22:12:53.926Z,9.52
2023-02-08T22:15:22.919Z,9.25
2023-02-08T22:17:57.291Z,8.60
2023-02-08T22:20:23.792Z,8.85
2023-02-08T22:22:53.603Z,9.07
2023-02-08T22:25:21.537Z,9.00
2023-02-08T22:27:48.153Z,8.00
2023-02-08T22:30:17.407Z,7.95
2023-02-08T22:32:45.800Z,7.25
2023-02-08T22:35:12.829Z,7.75
2023-02-08T22:37:40.505Z,7.35
2023-02-08T22:40:07.512Z,7.30
2023-02-08T22:42:34.003Z,7.32
2023-02-08T22:45:00.398Z,7.82
2023-02-08T22:47:26.827Z,7.07
2023-02-08T22:49:57.356Z,6.88
2023-02-08T22:52:25.669Z,6.97
2023-02-08T22:54:52.556Z,7.03
2023-02-08T22:57:19.356Z,7.03
2023-02-08T22:59:47.548Z,7.40
2023-02-08T23:02:17.113Z,6.82
2023-02-08T23:04:43.535Z,7.07
2023-02-08T23:07:10.054Z,7.20
2023-02-08T23:09:36.697Z,7.20
2023-02-08T23:12:03.425Z,7.00
2023-02-08T23:14:30.045Z,6.55
2023-02-08T23:16:56.517Z,7.03
2023-02-08T23:19:23.184Z,7.57
2023-02-08T23:21:49.643Z,7.07
2023-02-08T23:24:16.024Z,7.68
2023-02-08T23:26:42.568Z,7.63
2023-02-08T23:29:09.007Z,7.15
2023-02-08T23:31:35.539Z,6.72
2023-02-08T23:34:02.060Z,7.60
2023-02-08T23:36:28.530Z,7.13
2023-02-08T23:38:55.061Z,8.00
2023-02-08T23:41:22.810Z,7.25
2023-02-08T23:43:50.524Z,7.05
2023-02-08T23:46:25.411Z,7.55
2023-02-08T23:48:52.205Z,7.60
2023-02-08T23:51:21.053Z,7.90
2023-02-08T23:53:47.775Z,8.10
2023-02-08T23:56:21.611Z,8.98
2023-02-08T23:58:50.901Z,7.72
